LPA407 UHWW-UHHH
Flight info
| Callsign | LPA407 |
|---|---|
| Flight time | N/A |
| Altitude | 41000 |
| Route | DOLMA2F DOLMA B356 TD B355 ARDEL ARDEL6D |
| Aircraft | A333/H-SDE3GHIJ2J3J5M1RVWXY/LB2D1 |
Departure
| Time | 2026-04-20 19:46 |
|---|---|
| Airport | Vladivostok International Airport (UHWW) |
Arrival
| Time | N/A |
|---|---|
| Airport | Khabarovsk Novy Airport (UHHH) |
| Time | Latitude | Longitude | Altitude | Speed | Heading |
|---|---|---|---|---|---|
| 2026-04-20 18:43 | 43.39905 | 132.16888 | 38 ft | 0 kts | 151° |
| 2026-04-20 19:25 | 43.39916 | 132.16881 | 38 ft | 2 kts | 150° |
| 2026-04-20 19:25 | 43.39929 | 132.16870 | 38 ft | 2 kts | 150° |
| 2026-04-20 19:26 | 43.39942 | 132.16861 | 38 ft | 2 kts | 149° |
| 2026-04-20 19:26 | 43.39955 | 132.16850 | 38 ft | 2 kts | 150° |
| 2026-04-20 19:26 | 43.39968 | 132.16840 | 38 ft | 1 kts | 150° |
| 2026-04-20 19:26 | 43.39969 | 132.16840 | 38 ft | 0 kts | 150° |
| 2026-04-20 19:34 | 43.39965 | 132.16853 | 38 ft | 4 kts | 98° |
| 2026-04-20 19:35 | 43.39997 | 132.16911 | 36 ft | 4 kts | 45° |
| 2026-04-20 19:35 | 43.40033 | 132.16978 | 34 ft | 7 kts | 62° |
| 2026-04-20 19:35 | 43.40054 | 132.17032 | 33 ft | 5 kts | 61° |
| 2026-04-20 19:35 | 43.40074 | 132.17072 | 33 ft | 5 kts | 46° |
| 2026-04-20 19:36 | 43.40111 | 132.17082 | 32 ft | 6 kts | 347° |
| 2026-04-20 19:36 | 43.40155 | 132.17056 | 31 ft | 0 kts | 332° |
| 2026-04-20 19:37 | 43.40170 | 132.17044 | 30 ft | 4 kts | 332° |
| 2026-04-20 19:38 | 43.40174 | 132.17041 | 30 ft | 0 kts | 332° |
| 2026-04-20 19:38 | 43.40176 | 132.17040 | 30 ft | 1 kts | 332° |
| 2026-04-20 19:38 | 43.40203 | 132.17020 | 29 ft | 0 kts | 331° |
| 2026-04-20 19:38 | 43.40208 | 132.17017 | 29 ft | 1 kts | 332° |
| 2026-04-20 19:39 | 43.40255 | 132.16983 | 28 ft | 10 kts | 331° |
| 2026-04-20 19:39 | 43.40278 | 132.16966 | 28 ft | 0 kts | 331° |
| 2026-04-20 19:39 | 43.40279 | 132.16965 | 28 ft | 0 kts | 331° |
| 2026-04-20 19:40 | 43.40280 | 132.16965 | 28 ft | 0 kts | 331° |
| 2026-04-20 19:41 | 43.40304 | 132.16946 | 28 ft | 10 kts | 331° |
| 2026-04-20 19:42 | 43.40321 | 132.16934 | 28 ft | 0 kts | 332° |
| 2026-04-20 19:42 | 43.40322 | 132.16933 | 28 ft | 0 kts | 331° |
| 2026-04-20 19:42 | 43.40324 | 132.16931 | 28 ft | 0 kts | 331° |
| 2026-04-20 19:43 | 43.40328 | 132.16928 | 28 ft | 0 kts | 331° |
| 2026-04-20 19:43 | 43.40373 | 132.16896 | 28 ft | 10 kts | 332° |
| 2026-04-20 19:44 | 43.40423 | 132.16826 | 28 ft | 10 kts | 288° |
| 2026-04-20 19:44 | 43.40407 | 132.16733 | 29 ft | 10 kts | 242° |
| 2026-04-20 19:44 | 43.40402 | 132.16719 | 29 ft | 0 kts | 241° |
| 2026-04-20 19:45 | 43.40401 | 132.16717 | 29 ft | 1 kts | 241° |
| 2026-04-20 19:45 | 43.40390 | 132.16690 | 29 ft | 7 kts | 240° |
| 2026-04-20 19:46 | 43.40227 | 132.16295 | 36 ft | 93 kts | 240° |
| 2026-04-20 19:46 | 43.39781 | 132.15167 | 75 ft | 168 kts | 242° |
| 2026-04-20 19:46 | 43.39187 | 132.13773 | 956 ft | 175 kts | 239° |
| 2026-04-20 19:46 | 43.38639 | 132.12463 | 2124 ft | 151 kts | 242° |
| 2026-04-20 19:47 | 43.38095 | 132.11156 | 2530 ft | 162 kts | 243° |
| 2026-04-20 19:47 | 43.37515 | 132.09726 | 2864 ft | 177 kts | 244° |
| 2026-04-20 19:47 | 43.36911 | 132.08215 | 3230 ft | 189 kts | 244° |
| 2026-04-20 19:47 | 43.36245 | 132.06549 | 3597 ft | 205 kts | 244° |
| 2026-04-20 19:48 | 43.35531 | 132.04756 | 3999 ft | 224 kts | 244° |
| 2026-04-20 19:48 | 43.34767 | 132.02826 | 4584 ft | 240 kts | 245° |
| 2026-04-20 19:48 | 43.33962 | 132.00821 | 5483 ft | 244 kts | 245° |
| 2026-04-20 19:48 | 43.33136 | 131.98766 | 6384 ft | 247 kts | 246° |
| 2026-04-20 19:49 | 43.32299 | 131.96686 | 7001 ft | 254 kts | 246° |
| 2026-04-20 19:49 | 43.31455 | 131.94571 | 6881 ft | 252 kts | 247° |
| 2026-04-20 19:49 | 43.30623 | 131.92468 | 6965 ft | 249 kts | 247° |
| 2026-04-20 19:49 | 43.30123 | 131.90247 | 6927 ft | 241 kts | 271° |
| 2026-04-20 19:50 | 43.30519 | 131.88071 | 6963 ft | 238 kts | 299° |
| 2026-04-20 19:50 | 43.31726 | 131.86455 | 6952 ft | 246 kts | 327° |
| 2026-04-20 19:50 | 43.33409 | 131.85879 | 6959 ft | 259 kts | 354° |
| 2026-04-20 19:50 | 43.35209 | 131.86511 | 6966 ft | 275 kts | 18° |
| 2026-04-20 19:51 | 43.36917 | 131.87671 | 6959 ft | 275 kts | 19° |
| 2026-04-20 19:51 | 43.38647 | 131.88852 | 6950 ft | 275 kts | 19° |
| 2026-04-20 19:51 | 43.40393 | 131.90045 | 7139 ft | 289 kts | 19° |
| 2026-04-20 19:51 | 43.42150 | 131.91240 | 8302 ft | 282 kts | 19° |
| 2026-04-20 19:52 | 43.43892 | 131.92464 | 9255 ft | 284 kts | 19° |
| 2026-04-20 19:52 | 43.45663 | 131.93720 | 10000 ft | 292 kts | 19° |
| 2026-04-20 19:52 | 43.47516 | 131.95042 | 10548 ft | 308 kts | 19° |
| 2026-04-20 19:52 | 43.49528 | 131.96455 | 10667 ft | 336 kts | 19° |
| 2026-04-20 19:53 | 43.51733 | 131.97957 | 10677 ft | 367 kts | 19° |
| 2026-04-20 19:53 | 43.54015 | 131.99483 | 10652 ft | 368 kts | 19° |
| 2026-04-20 19:53 | 43.56299 | 132.01006 | 10635 ft | 362 kts | 19° |
| 2026-04-20 19:53 | 43.58557 | 132.02525 | 10670 ft | 359 kts | 19° |
| 2026-04-20 19:54 | 43.60799 | 132.04001 | 10630 ft | 363 kts | 23° |
| 2026-04-20 19:54 | 43.62758 | 132.06317 | 10595 ft | 373 kts | 45° |
| 2026-04-20 19:54 | 43.64186 | 132.09306 | 10664 ft | 377 kts | 50° |
| 2026-04-20 19:54 | 43.65757 | 132.12253 | 10639 ft | 379 kts | 47° |
| 2026-04-20 19:55 | 43.67394 | 132.15224 | 11083 ft | 391 kts | 47° |
| 2026-04-20 19:55 | 43.68993 | 132.18127 | 12339 ft | 382 kts | 46° |
| 2026-04-20 19:55 | 43.70635 | 132.21095 | 12961 ft | 393 kts | 46° |
| 2026-04-20 19:55 | 43.72295 | 132.24106 | 13724 ft | 397 kts | 47° |
| 2026-04-20 19:56 | 43.73414 | 132.26134 | 14341 ft | 398 kts | 47° |
| 2026-04-20 19:56 | 43.75714 | 132.30307 | 15190 ft | 409 kts | 47° |
| 2026-04-20 19:56 | 43.77427 | 132.33421 | 15941 ft | 412 kts | 47° |
| 2026-04-20 19:56 | 43.79160 | 132.36578 | 16625 ft | 417 kts | 46° |
| 2026-04-20 19:57 | 43.80926 | 132.39790 | 17351 ft | 421 kts | 47° |
| 2026-04-20 19:57 | 43.82694 | 132.43018 | 18000 ft | 426 kts | 47° |
| 2026-04-20 19:57 | 43.84490 | 132.46289 | 18676 ft | 429 kts | 47° |
| 2026-04-20 19:57 | 43.86309 | 132.49618 | 19428 ft | 430 kts | 47° |
| 2026-04-20 19:58 | 43.88096 | 132.52889 | 20556 ft | 420 kts | 47° |
| 2026-04-20 19:58 | 43.89822 | 132.56056 | 21693 ft | 409 kts | 46° |
| 2026-04-20 19:58 | 43.91520 | 132.59166 | 22622 ft | 402 kts | 47° |
| 2026-04-20 19:58 | 43.93192 | 132.62233 | 23220 ft | 404 kts | 46° |
| 2026-04-20 19:59 | 43.94908 | 132.65379 | 23606 ft | 412 kts | 48° |
| 2026-04-20 19:59 | 43.96653 | 132.68590 | 24138 ft | 415 kts | 48° |
| 2026-04-20 19:59 | 43.98407 | 132.71820 | 24474 ft | 423 kts | 48° |
| 2026-04-20 19:59 | 44.00175 | 132.75078 | 25043 ft | 423 kts | 49° |
| 2026-04-20 20:00 | 44.01922 | 132.78308 | 25594 ft | 424 kts | 49° |
| 2026-04-20 20:00 | 44.03714 | 132.81618 | 26024 ft | 428 kts | 49° |
| 2026-04-20 20:00 | 44.05502 | 132.84920 | 26555 ft | 429 kts | 50° |
| 2026-04-20 20:00 | 44.07295 | 132.88245 | 26953 ft | 433 kts | 50° |
| 2026-04-20 20:01 | 44.09125 | 132.91638 | 27410 ft | 436 kts | 50° |
| 2026-04-20 20:01 | 44.10933 | 132.94997 | 27921 ft | 437 kts | 50° |
| 2026-04-20 20:01 | 44.12774 | 132.98416 | 28308 ft | 439 kts | 51° |
| 2026-04-20 20:01 | 44.14595 | 133.01805 | 28638 ft | 443 kts | 51° |
| 2026-04-20 20:02 | 44.16452 | 133.05267 | 29029 ft | 445 kts | 51° |
| 2026-04-20 20:02 | 44.18318 | 133.08745 | 29391 ft | 447 kts | 51° |
| 2026-04-20 20:02 | 44.20290 | 133.12161 | 29726 ft | 447 kts | 43° |
| 2026-04-20 20:02 | 44.22708 | 133.14838 | 29990 ft | 447 kts | 32° |
| 2026-04-20 20:03 | 44.25235 | 133.17386 | 30361 ft | 448 kts | 34° |
| 2026-04-20 20:03 | 44.27750 | 133.19965 | 30671 ft | 450 kts | 33° |
| 2026-04-20 20:03 | 44.30285 | 133.22571 | 30902 ft | 455 kts | 34° |
| 2026-04-20 20:03 | 44.32848 | 133.25214 | 31231 ft | 457 kts | 34° |
| 2026-04-20 20:04 | 44.35396 | 133.27846 | 31548 ft | 460 kts | 34° |
| 2026-04-20 20:04 | 44.38002 | 133.30543 | 31786 ft | 464 kts | 34° |
| 2026-04-20 20:04 | 44.40582 | 133.33214 | 32104 ft | 465 kts | 35° |
| 2026-04-20 20:04 | 44.43181 | 133.35907 | 32361 ft | 469 kts | 35° |
| 2026-04-20 20:05 | 44.45798 | 133.38625 | 32622 ft | 471 kts | 35° |
| 2026-04-20 20:05 | 44.48454 | 133.41386 | 32847 ft | 475 kts | 35° |
| 2026-04-20 20:05 | 44.51129 | 133.44165 | 33177 ft | 476 kts | 35° |
| 2026-04-20 20:05 | 44.53788 | 133.46936 | 33415 ft | 480 kts | 35° |
| 2026-04-20 20:06 | 44.56500 | 133.49765 | 33696 ft | 482 kts | 35° |
| 2026-04-20 20:06 | 44.59187 | 133.52570 | 33897 ft | 487 kts | 35° |
| 2026-04-20 20:06 | 44.61913 | 133.55420 | 34180 ft | 489 kts | 35° |
| 2026-04-20 20:06 | 44.64664 | 133.58299 | 34417 ft | 492 kts | 35° |
| 2026-04-20 20:07 | 44.67429 | 133.61192 | 34676 ft | 494 kts | 35° |
| 2026-04-20 20:07 | 44.70201 | 133.64105 | 34925 ft | 496 kts | 35° |
| 2026-04-20 20:07 | 44.72989 | 133.67029 | 35182 ft | 498 kts | 36° |
| 2026-04-20 20:07 | 44.75798 | 133.69984 | 35412 ft | 500 kts | 36° |
| 2026-04-20 20:08 | 44.78607 | 133.72940 | 35509 ft | 505 kts | 36° |
| 2026-04-20 20:08 | 44.81455 | 133.75943 | 35616 ft | 509 kts | 36° |
| 2026-04-20 20:08 | 44.84322 | 133.78970 | 35737 ft | 512 kts | 36° |
| 2026-04-20 20:09 | 44.90071 | 133.85049 | 35969 ft | 518 kts | 36° |
| 2026-04-20 20:09 | 44.92994 | 133.88094 | 36086 ft | 519 kts | 34° |
| 2026-04-20 20:09 | 44.95959 | 133.91016 | 36204 ft | 521 kts | 34° |
| 2026-04-20 20:09 | 44.98934 | 133.93968 | 36328 ft | 522 kts | 34° |
| 2026-04-20 20:10 | 45.01875 | 133.96899 | 36448 ft | 524 kts | 34° |
| 2026-04-20 20:10 | 45.04859 | 133.99876 | 36577 ft | 524 kts | 34° |
| 2026-04-20 20:10 | 45.06836 | 134.01854 | 36655 ft | 525 kts | 34° |
| 2026-04-20 20:10 | 45.10832 | 134.05847 | 36823 ft | 525 kts | 34° |
| 2026-04-20 20:11 | 45.13795 | 134.08818 | 36927 ft | 525 kts | 34° |
| 2026-04-20 20:11 | 45.16760 | 134.11793 | 37037 ft | 525 kts | 34° |
| 2026-04-20 20:11 | 45.18740 | 134.13780 | 37109 ft | 525 kts | 34° |
| 2026-04-20 20:11 | 45.22718 | 134.17780 | 37256 ft | 525 kts | 34° |
| 2026-04-20 20:12 | 45.24704 | 134.19780 | 37332 ft | 524 kts | 34° |
| 2026-04-20 20:12 | 45.27668 | 134.22768 | 37437 ft | 524 kts | 34° |
| 2026-04-20 20:12 | 45.30659 | 134.25787 | 37551 ft | 524 kts | 34° |
| 2026-04-20 20:13 | 45.37574 | 134.32779 | 37840 ft | 523 kts | 34° |
| 2026-04-20 20:13 | 45.40540 | 134.35788 | 37970 ft | 522 kts | 34° |
| 2026-04-20 20:13 | 45.43501 | 134.38792 | 38097 ft | 522 kts | 34° |
| 2026-04-20 20:13 | 45.46466 | 134.41805 | 38228 ft | 522 kts | 34° |
| 2026-04-20 20:14 | 45.49424 | 134.44817 | 38360 ft | 521 kts | 34° |
| 2026-04-20 20:14 | 45.51373 | 134.46800 | 38496 ft | 519 kts | 34° |
| 2026-04-20 20:14 | 45.54306 | 134.49794 | 38717 ft | 517 kts | 34° |
| 2026-04-20 20:14 | 45.58227 | 134.53799 | 38894 ft | 517 kts | 34° |
| 2026-04-20 20:15 | 45.61138 | 134.56776 | 39032 ft | 516 kts | 34° |
| 2026-04-20 20:15 | 45.63117 | 134.58801 | 39124 ft | 516 kts | 34° |
| 2026-04-20 20:15 | 45.67020 | 134.62807 | 39311 ft | 515 kts | 34° |
| 2026-04-20 20:15 | 45.69916 | 134.65781 | 39449 ft | 515 kts | 35° |
| 2026-04-20 20:16 | 45.72868 | 134.68813 | 39582 ft | 514 kts | 36° |
| 2026-04-20 20:16 | 45.75739 | 134.71774 | 39716 ft | 514 kts | 35° |
| 2026-04-20 20:16 | 45.81568 | 134.77788 | 39993 ft | 512 kts | 35° |
| 2026-04-20 20:17 | 45.84633 | 134.80444 | 40101 ft | 509 kts | 22° |
| 2026-04-20 20:17 | 45.87978 | 134.81877 | 40258 ft | 502 kts | 6° |
| 2026-04-20 20:17 | 45.91469 | 134.82005 | 40449 ft | 492 kts | 350° |
| 2026-04-20 20:17 | 45.94893 | 134.81374 | 40573 ft | 491 kts | 348° |
| 2026-04-20 20:18 | 46.00571 | 134.80252 | 40545 ft | 495 kts | 348° |
| 2026-04-20 20:18 | 46.07428 | 134.78867 | 40510 ft | 500 kts | 348° |
| 2026-04-20 20:19 | 46.14337 | 134.77455 | 40498 ft | 503 kts | 348° |
| 2026-04-20 20:19 | 46.21304 | 134.76013 | 40532 ft | 505 kts | 348° |
| 2026-04-20 20:20 | 46.28279 | 134.74550 | 40541 ft | 506 kts | 348° |
| 2026-04-20 20:20 | 46.35220 | 134.72659 | 40525 ft | 501 kts | 337° |
| 2026-04-20 20:21 | 46.41867 | 134.69444 | 40493 ft | 503 kts | 338° |
| 2026-04-20 20:21 | 46.49659 | 134.65770 | 40502 ft | 505 kts | 338° |
| 2026-04-20 20:22 | 46.55213 | 134.63138 | 40547 ft | 504 kts | 339° |
| 2026-04-20 20:22 | 46.63002 | 134.59428 | 40550 ft | 505 kts | 338° |
| 2026-04-20 20:23 | 46.68570 | 134.56767 | 40503 ft | 506 kts | 339° |
| 2026-04-20 20:23 | 46.76367 | 134.53008 | 40505 ft | 507 kts | 338° |
| 2026-04-20 20:24 | 46.81977 | 134.50299 | 40531 ft | 507 kts | 339° |
| 2026-04-20 20:24 | 46.88721 | 134.46989 | 40528 ft | 507 kts | 339° |
| 2026-04-20 20:25 | 46.96320 | 134.43375 | 40493 ft | 511 kts | 346° |
| 2026-04-20 20:25 | 47.03443 | 134.43779 | 40504 ft | 517 kts | 17° |
| 2026-04-20 20:26 | 47.05664 | 134.45085 | 40490 ft | 517 kts | 28° |
| 2026-04-20 20:26 | 47.08619 | 134.48029 | 40530 ft | 514 kts | 44° |
| 2026-04-20 20:26 | 47.10939 | 134.51915 | 40503 ft | 510 kts | 59° |
| 2026-04-20 20:26 | 47.12508 | 134.56586 | 40493 ft | 503 kts | 75° |
| 2026-04-20 20:27 | 47.14404 | 134.66487 | 40432 ft | 504 kts | 78° |
| 2026-04-20 20:27 | 47.15329 | 134.71417 | 40537 ft | 503 kts | 78° |
| 2026-04-20 20:27 | 47.16563 | 134.78038 | 40440 ft | 506 kts | 78° |
| 2026-04-20 20:28 | 47.18431 | 134.88010 | 40479 ft | 506 kts | 78° |
| 2026-04-20 20:28 | 47.20008 | 134.96361 | 40527 ft | 506 kts | 78° |
| 2026-04-20 20:29 | 47.21899 | 135.06374 | 40513 ft | 507 kts | 78° |
| 2026-04-20 20:29 | 47.24104 | 135.18051 | 40519 ft | 507 kts | 78° |
| 2026-04-20 20:30 | 47.25667 | 135.26395 | 40469 ft | 509 kts | 78° |
| 2026-04-20 20:30 | 47.27560 | 135.36462 | 40477 ft | 509 kts | 78° |
| 2026-04-20 20:31 | 47.29462 | 135.46509 | 40512 ft | 509 kts | 77° |
| 2026-04-20 20:31 | 47.31682 | 135.58263 | 40510 ft | 510 kts | 77° |
| 2026-04-20 20:32 | 47.33563 | 135.66547 | 40472 ft | 513 kts | 72° |
| 2026-04-20 20:32 | 47.36426 | 135.76241 | 40437 ft | 517 kts | 67° |
| 2026-04-20 20:33 | 47.39910 | 135.85530 | 40458 ft | 518 kts | 60° |
| 2026-04-20 20:33 | 47.42141 | 135.89774 | 40445 ft | 521 kts | 47° |
| 2026-04-20 20:33 | 47.44957 | 135.93114 | 40500 ft | 521 kts | 31° |
| 2026-04-20 20:34 | 47.48228 | 135.95311 | 40465 ft | 521 kts | 15° |
| 2026-04-20 20:34 | 47.51743 | 135.96530 | 40519 ft | 519 kts | 12° |
| 2026-04-20 20:34 | 47.58907 | 135.97313 | 40468 ft | 512 kts | 347° |
| 2026-04-20 20:35 | 47.65905 | 135.95448 | 40386 ft | 511 kts | 340° |
| 2026-04-20 20:35 | 47.69187 | 135.93518 | 40570 ft | 503 kts | 332° |
| 2026-04-20 20:35 | 47.72385 | 135.91283 | 40416 ft | 506 kts | 329° |
| 2026-04-20 20:36 | 47.76494 | 135.87953 | 40529 ft | 502 kts | 325° |
| 2026-04-20 20:36 | 47.78517 | 135.86182 | 40483 ft | 504 kts | 326° |
| 2026-04-20 20:36 | 47.84599 | 135.81014 | 40534 ft | 505 kts | 326° |
| 2026-04-20 20:37 | 47.90754 | 135.75810 | 40508 ft | 506 kts | 327° |
| 2026-04-20 20:37 | 47.93799 | 135.73231 | 40374 ft | 506 kts | 327° |
| 2026-04-20 20:37 | 47.96904 | 135.70598 | 39315 ft | 512 kts | 327° |
| 2026-04-20 20:38 | 47.99965 | 135.67995 | 38466 ft | 508 kts | 327° |
| 2026-04-20 20:38 | 48.03010 | 135.65410 | 38162 ft | 497 kts | 327° |
| 2026-04-20 20:38 | 48.06033 | 135.62828 | 37150 ft | 508 kts | 327° |
| 2026-04-20 20:38 | 48.09136 | 135.60184 | 36240 ft | 515 kts | 327° |
| 2026-04-20 20:39 | 48.12259 | 135.57518 | 35636 ft | 513 kts | 326° |
| 2026-04-20 20:39 | 48.15365 | 135.54855 | 34957 ft | 514 kts | 327° |
| 2026-04-20 20:39 | 48.19525 | 135.51289 | 33951 ft | 518 kts | 326° |
| 2026-04-20 20:39 | 48.21579 | 135.49525 | 33409 ft | 521 kts | 326° |
| 2026-04-20 20:40 | 48.24743 | 135.46805 | 32843 ft | 520 kts | 326° |
| 2026-04-20 20:40 | 48.27851 | 135.44135 | 32795 ft | 508 kts | 327° |
| 2026-04-20 20:40 | 48.30883 | 135.41524 | 32563 ft | 502 kts | 327° |
| 2026-04-20 20:40 | 48.33919 | 135.38901 | 32461 ft | 493 kts | 327° |
| 2026-04-20 20:41 | 48.36831 | 135.36386 | 32484 ft | 481 kts | 327° |
| 2026-04-20 20:41 | 48.39737 | 135.33876 | 32436 ft | 471 kts | 326° |
| 2026-04-20 20:41 | 48.42497 | 135.31483 | 32461 ft | 459 kts | 325° |
| 2026-04-20 20:41 | 48.46138 | 135.28323 | 32455 ft | 446 kts | 325° |
| 2026-04-20 20:42 | 48.50545 | 135.24490 | 32464 ft | 429 kts | 324° |
| 2026-04-20 20:42 | 48.52837 | 135.21825 | 32468 ft | 407 kts | 304° |
| 2026-04-20 20:42 | 48.54407 | 135.18391 | 32502 ft | 380 kts | 288° |
| 2026-04-20 20:43 | 48.55295 | 135.14781 | 32454 ft | 355 kts | 272° |
| 2026-04-20 20:43 | 48.55831 | 135.11215 | 32465 ft | 344 kts | 271° |
| 2026-04-20 20:43 | 48.56922 | 135.03281 | 32470 ft | 326 kts | 270° |
| 2026-04-20 20:44 | 48.57695 | 134.97487 | 32479 ft | 347 kts | 270° |
| 2026-04-20 20:44 | 48.58185 | 134.93822 | 32494 ft | 360 kts | 271° |
| 2026-04-20 20:44 | 48.58687 | 134.90068 | 32475 ft | 375 kts | 272° |
| 2026-04-20 20:45 | 48.59219 | 134.86101 | 32479 ft | 387 kts | 272° |
| 2026-04-20 20:45 | 48.59752 | 134.82083 | 32494 ft | 401 kts | 272° |
| 2026-04-20 20:45 | 48.60308 | 134.77901 | 32486 ft | 415 kts | 273° |
| 2026-04-20 20:45 | 48.61080 | 134.72063 | 32490 ft | 432 kts | 273° |
| 2026-04-20 20:46 | 48.62069 | 134.64583 | 32452 ft | 427 kts | 273° |
| 2026-04-20 20:46 | 48.62634 | 134.60280 | 32448 ft | 416 kts | 273° |
| 2026-04-20 20:46 | 48.63192 | 134.55994 | 32488 ft | 415 kts | 272° |
| 2026-04-20 20:47 | 48.64319 | 134.47328 | 32473 ft | 419 kts | 273° |
| 2026-04-20 20:47 | 48.65444 | 134.38631 | 32474 ft | 421 kts | 273° |
| 2026-04-20 20:48 | 48.66743 | 134.28485 | 32498 ft | 431 kts | 273° |
| 2026-04-20 20:48 | 48.67716 | 134.20842 | 32481 ft | 453 kts | 273° |
| 2026-04-20 20:49 | 48.68522 | 134.14484 | 32494 ft | 468 kts | 274° |
| 2026-04-20 20:49 | 48.69132 | 134.09665 | 32476 ft | 478 kts | 274° |
| 2026-04-20 20:49 | 48.70403 | 133.99564 | 32490 ft | 492 kts | 274° |
| 2026-04-20 20:50 | 48.71656 | 133.89542 | 32468 ft | 482 kts | 274° |
| 2026-04-20 20:50 | 48.72878 | 133.79666 | 32487 ft | 478 kts | 274° |
| 2026-04-20 20:51 | 48.73895 | 133.71362 | 32436 ft | 480 kts | 274° |
| 2026-04-20 20:51 | 48.76411 | 133.60126 | 32482 ft | 492 kts | 289° |
| 2026-04-20 20:52 | 48.78738 | 133.52290 | 32456 ft | 492 kts | 289° |
| 2026-04-20 20:52 | 48.82020 | 133.41258 | 32431 ft | 491 kts | 289° |
| 2026-04-20 20:53 | 48.84801 | 133.31880 | 32464 ft | 490 kts | 289° |
| 2026-04-20 20:53 | 48.87601 | 133.22400 | 32455 ft | 488 kts | 289° |
| 2026-04-20 20:54 | 48.89746 | 133.15108 | 32471 ft | 488 kts | 289° |
| 2026-04-20 20:54 | 48.92497 | 133.05730 | 32470 ft | 490 kts | 289° |
| 2026-04-20 20:55 | 48.95265 | 132.96256 | 32473 ft | 488 kts | 289° |
| 2026-04-20 20:55 | 48.97995 | 132.86876 | 32467 ft | 486 kts | 289° |
| 2026-04-20 20:56 | 49.01153 | 132.75983 | 32474 ft | 485 kts | 289° |
| 2026-04-20 20:56 | 49.03416 | 132.68143 | 32453 ft | 487 kts | 289° |
| 2026-04-20 20:57 | 49.06135 | 132.58684 | 32448 ft | 486 kts | 289° |
| 2026-04-20 20:57 | 49.09271 | 132.47737 | 32420 ft | 485 kts | 290° |
| 2026-04-20 20:58 | 49.11509 | 132.39897 | 32371 ft | 485 kts | 290° |
| 2026-04-20 20:58 | 49.14134 | 132.30662 | 32406 ft | 483 kts | 289° |
| 2026-04-20 20:59 | 49.17135 | 132.20061 | 32388 ft | 482 kts | 289° |
| 2026-04-20 20:59 | 49.19354 | 132.12195 | 32358 ft | 483 kts | 289° |
| 2026-04-20 21:00 | 49.21996 | 132.02789 | 32365 ft | 483 kts | 289° |
| 2026-04-20 21:00 | 49.24650 | 131.93308 | 32345 ft | 482 kts | 289° |
| 2026-04-20 21:01 | 49.27233 | 131.84045 | 32377 ft | 483 kts | 289° |
| 2026-04-20 21:01 | 49.30238 | 131.73222 | 32427 ft | 483 kts | 289° |
| 2026-04-20 21:02 | 49.32811 | 131.63911 | 32412 ft | 482 kts | 289° |
| 2026-04-20 21:02 | 49.35407 | 131.54483 | 32421 ft | 481 kts | 289° |
| 2026-04-20 21:03 | 49.37554 | 131.46657 | 32416 ft | 481 kts | 290° |
| 2026-04-20 21:03 | 49.40157 | 131.37132 | 32432 ft | 481 kts | 290° |
| 2026-04-20 21:04 | 49.42710 | 131.27750 | 32437 ft | 480 kts | 289° |
| 2026-04-20 21:04 | 49.45703 | 131.16704 | 32448 ft | 479 kts | 289° |
| 2026-04-20 21:05 | 49.47823 | 131.08855 | 32458 ft | 479 kts | 289° |
| 2026-04-20 21:05 | 49.50811 | 130.97736 | 31950 ft | 481 kts | 289° |
| 2026-04-20 21:06 | 49.51653 | 130.94592 | 31295 ft | 487 kts | 289° |
| 2026-04-20 21:06 | 49.52949 | 130.89741 | 30266 ft | 495 kts | 290° |
| 2026-04-20 21:06 | 49.54264 | 130.84817 | 29357 ft | 496 kts | 290° |
| 2026-04-20 21:06 | 49.55568 | 130.79923 | 28508 ft | 495 kts | 290° |
| 2026-04-20 21:07 | 49.56859 | 130.75063 | 27535 ft | 497 kts | 291° |
| 2026-04-20 21:07 | 49.58591 | 130.68529 | 26183 ft | 498 kts | 291° |
| 2026-04-20 21:07 | 49.59453 | 130.65274 | 25222 ft | 489 kts | 291° |
| 2026-04-20 21:07 | 49.60721 | 130.60455 | 23588 ft | 482 kts | 291° |
| 2026-04-20 21:08 | 49.61901 | 130.55757 | 22275 ft | 466 kts | 290° |
| 2026-04-20 21:08 | 49.62955 | 130.51047 | 21187 ft | 463 kts | 287° |
| 2026-04-20 21:08 | 49.64168 | 130.44951 | 21470 ft | 418 kts | 286° |
| 2026-04-20 21:08 | 49.65053 | 130.40758 | 22205 ft | 417 kts | 292° |
| 2026-04-20 21:09 | 49.65963 | 130.38164 | 21940 ft | 416 kts | 302° |
| 2026-04-20 21:09 | 49.67354 | 130.34293 | 21808 ft | 402 kts | 295° |
| 2026-04-20 21:09 | 49.68512 | 130.30402 | 21397 ft | 395 kts | 293° |
| 2026-04-20 21:09 | 49.69575 | 130.26533 | 20989 ft | 387 kts | 292° |
| 2026-04-20 21:10 | 49.70585 | 130.22737 | 20585 ft | 381 kts | 291° |
| 2026-04-20 21:10 | 49.71897 | 130.17719 | 20055 ft | 372 kts | 291° |
| 2026-04-20 21:10 | 49.72543 | 130.15230 | 19785 ft | 368 kts | 291° |
| 2026-04-20 21:10 | 49.73485 | 130.11592 | 19385 ft | 363 kts | 291° |
| 2026-04-20 21:11 | 49.74704 | 130.06869 | 18866 ft | 356 kts | 291° |
| 2026-04-20 21:11 | 49.75317 | 130.04491 | 18604 ft | 353 kts | 291° |
| 2026-04-20 21:11 | 49.76223 | 130.00972 | 18209 ft | 348 kts | 291° |
| 2026-04-20 21:11 | 49.77411 | 129.96344 | 17679 ft | 343 kts | 291° |
| 2026-04-20 21:12 | 49.77996 | 129.94064 | 17415 ft | 340 kts | 291° |
| 2026-04-20 21:12 | 49.78851 | 129.90723 | 17023 ft | 337 kts | 291° |
| 2026-04-20 21:12 | 49.79997 | 129.86241 | 16491 ft | 332 kts | 291° |
| 2026-04-20 21:12 | 49.80551 | 129.84068 | 16233 ft | 330 kts | 291° |
| 2026-04-20 21:13 | 49.81391 | 129.80777 | 15835 ft | 327 kts | 292° |
| 2026-04-20 21:13 | 49.82499 | 129.76425 | 15306 ft | 323 kts | 292° |
| 2026-04-20 21:13 | 49.83043 | 129.74281 | 15041 ft | 322 kts | 292° |
| 2026-04-20 21:13 | 49.84125 | 129.70020 | 14508 ft | 318 kts | 292° |
| 2026-04-20 21:14 | 49.84663 | 129.67902 | 14241 ft | 316 kts | 292° |
| 2026-04-20 21:14 | 49.85464 | 129.64737 | 13839 ft | 314 kts | 292° |
| 2026-04-20 21:14 | 49.86517 | 129.60574 | 13303 ft | 311 kts | 292° |
| 2026-04-20 21:14 | 49.87049 | 129.58466 | 13032 ft | 309 kts | 292° |
| 2026-04-20 21:15 | 49.87825 | 129.55388 | 12636 ft | 307 kts | 292° |
| 2026-04-20 21:15 | 49.88870 | 129.51234 | 12118 ft | 327 kts | 292° |
| 2026-04-20 21:15 | 49.89441 | 129.48964 | 11888 ft | 353 kts | 292° |
| 2026-04-20 21:15 | 49.90336 | 129.45398 | 11525 ft | 359 kts | 292° |
| 2026-04-20 21:16 | 49.91241 | 129.41788 | 11262 ft | 352 kts | 292° |
| 2026-04-20 21:16 | 49.92414 | 129.37102 | 11055 ft | 349 kts | 291° |
| 2026-04-20 21:16 | 49.93287 | 129.33607 | 10860 ft | 348 kts | 290° |
| 2026-04-20 21:16 | 49.93861 | 129.31308 | 10741 ft | 348 kts | 290° |
| 2026-04-20 21:17 | 49.95026 | 129.26622 | 10494 ft | 347 kts | 290° |
| 2026-04-20 21:17 | 49.95610 | 129.24274 | 10369 ft | 346 kts | 290° |
| 2026-04-20 21:17 | 49.96471 | 129.20805 | 10180 ft | 345 kts | 290° |
| 2026-04-20 21:17 | 49.97618 | 129.16177 | 9935 ft | 344 kts | 290° |
| 2026-04-20 21:18 | 49.98188 | 129.13873 | 9814 ft | 343 kts | 290° |
| 2026-04-20 21:18 | 49.99318 | 129.09299 | 9568 ft | 342 kts | 291° |
| 2026-04-20 21:18 | 49.99884 | 129.07004 | 9449 ft | 341 kts | 291° |
| 2026-04-20 21:18 | 50.00737 | 129.03581 | 9382 ft | 341 kts | 291° |
| 2026-04-20 21:19 | 50.01587 | 129.00122 | 9352 ft | 341 kts | 291° |
| 2026-04-20 21:19 | 50.02430 | 128.96686 | 9303 ft | 342 kts | 291° |
| 2026-04-20 21:19 | 50.03278 | 128.93218 | 9247 ft | 342 kts | 291° |
| 2026-04-20 21:20 | 50.04959 | 128.86307 | 9138 ft | 342 kts | 291° |
| 2026-04-20 21:20 | 50.06079 | 128.81706 | 9066 ft | 342 kts | 291° |
| 2026-04-20 21:20 | 50.06648 | 128.79366 | 9030 ft | 342 kts | 291° |
| 2026-04-20 21:20 | 50.07485 | 128.75932 | 8931 ft | 342 kts | 291° |
| 2026-04-20 21:21 | 50.08601 | 128.71338 | 8776 ft | 340 kts | 291° |
| 2026-04-20 21:21 | 50.09428 | 128.67926 | 8668 ft | 339 kts | 291° |
| 2026-04-20 21:21 | 50.10258 | 128.64491 | 8565 ft | 338 kts | 291° |
| 2026-04-20 21:21 | 50.11092 | 128.61043 | 8463 ft | 338 kts | 291° |
| 2026-04-20 21:22 | 50.11634 | 128.58787 | 8393 ft | 337 kts | 291° |
| 2026-04-20 21:22 | 50.12712 | 128.54260 | 8254 ft | 337 kts | 291° |
| 2026-04-20 21:22 | 50.13255 | 128.51965 | 8182 ft | 336 kts | 291° |
| 2026-04-20 21:22 | 50.14065 | 128.48528 | 8078 ft | 336 kts | 291° |
| 2026-04-20 21:23 | 50.14865 | 128.45142 | 7976 ft | 337 kts | 291° |
| 2026-04-20 21:23 | 50.15944 | 128.40575 | 7838 ft | 336 kts | 291° |
| 2026-04-20 21:23 | 50.16484 | 128.38294 | 7770 ft | 336 kts | 291° |
| 2026-04-20 21:23 | 50.17567 | 128.33743 | 7631 ft | 336 kts | 290° |
| 2026-04-20 21:24 | 50.18375 | 128.30333 | 7525 ft | 335 kts | 290° |
| 2026-04-20 21:24 | 50.19177 | 128.26950 | 7468 ft | 334 kts | 290° |
| 2026-04-20 21:24 | 50.19986 | 128.23549 | 7514 ft | 334 kts | 290° |
| 2026-04-20 21:24 | 50.20529 | 128.21266 | 7496 ft | 334 kts | 291° |
| 2026-04-20 21:25 | 50.21327 | 128.17894 | 7479 ft | 334 kts | 290° |
| 2026-04-20 21:25 | 50.22132 | 128.14491 | 7509 ft | 334 kts | 291° |
| 2026-04-20 21:25 | 50.23196 | 128.09952 | 7498 ft | 334 kts | 291° |
| 2026-04-20 21:25 | 50.24000 | 128.06543 | 7497 ft | 333 kts | 292° |
| 2026-04-20 21:26 | 50.24876 | 128.03214 | 7523 ft | 334 kts | 292° |
| 2026-04-20 21:26 | 50.25451 | 128.00935 | 7505 ft | 334 kts | 292° |
| 2026-04-20 21:26 | 50.26547 | 127.96487 | 7713 ft | 336 kts | 291° |
| 2026-04-20 21:26 | 50.27382 | 127.93042 | 7415 ft | 335 kts | 291° |
| 2026-04-20 21:27 | 50.28194 | 127.89670 | 7137 ft | 333 kts | 291° |
| 2026-04-20 21:27 | 50.28737 | 127.87407 | 7001 ft | 327 kts | 291° |
| 2026-04-20 21:27 | 50.29782 | 127.83039 | 6698 ft | 314 kts | 291° |
| 2026-04-20 21:27 | 50.30536 | 127.79878 | 6443 ft | 308 kts | 291° |
| 2026-04-20 21:28 | 50.31026 | 127.77821 | 6258 ft | 305 kts | 291° |
| 2026-04-20 21:28 | 50.31763 | 127.74720 | 5985 ft | 303 kts | 292° |
| 2026-04-20 21:28 | 50.32506 | 127.71598 | 5750 ft | 303 kts | 292° |
| 2026-04-20 21:28 | 50.33232 | 127.68531 | 5495 ft | 300 kts | 292° |
| 2026-04-20 21:29 | 50.33808 | 127.65389 | 5205 ft | 302 kts | 277° |
| 2026-04-20 21:29 | 50.33286 | 127.61156 | 4905 ft | 297 kts | 243° |
| 2026-04-20 21:29 | 50.32494 | 127.59445 | 4731 ft | 295 kts | 226° |
| 2026-04-20 21:29 | 50.30796 | 127.57705 | 4448 ft | 292 kts | 201° |
| 2026-04-20 21:30 | 50.28503 | 127.55621 | 4074 ft | 286 kts | 227° |
| 2026-04-20 21:30 | 50.27752 | 127.53937 | 3879 ft | 283 kts | 245° |
| 2026-04-20 21:30 | 50.27323 | 127.50978 | 3579 ft | 277 kts | 272° |
| 2026-04-20 21:30 | 50.27748 | 127.48100 | 3326 ft | 271 kts | 297° |
| 2026-04-20 21:31 | 50.28933 | 127.45876 | 3263 ft | 263 kts | 325° |
| 2026-04-20 21:31 | 50.30292 | 127.44097 | 3171 ft | 249 kts | 321° |
| 2026-04-20 21:31 | 50.32268 | 127.42589 | 3342 ft | 223 kts | 1° |
| 2026-04-20 21:31 | 50.33251 | 127.42661 | 3294 ft | 207 kts | 7° |
| 2026-04-20 21:32 | 50.35106 | 127.43010 | 2587 ft | 193 kts | 7° |
| 2026-04-20 21:32 | 50.36362 | 127.43261 | 2186 ft | 171 kts | 7° |
| 2026-04-20 21:32 | 50.37118 | 127.43347 | 2058 ft | 159 kts | 358° |
| 2026-04-20 21:32 | 50.38182 | 127.43121 | 1584 ft | 149 kts | 348° |
| 2026-04-20 21:33 | 50.39449 | 127.42628 | 1234 ft | 138 kts | 348° |
| 2026-04-20 21:33 | 50.40094 | 127.42432 | 1318 ft | 143 kts | 349° |
| 2026-04-20 21:33 | 50.41110 | 127.42115 | 2046 ft | 161 kts | 350° |
| 2026-04-20 21:33 | 50.42968 | 127.41536 | 2209 ft | 260 kts | 348° |
| 2026-04-20 21:34 | 50.44266 | 127.41116 | 2166 ft | 285 kts | 349° |
| 2026-04-20 21:34 | 50.46196 | 127.40448 | 2872 ft | 278 kts | 346° |
| 2026-04-20 21:34 | 50.48052 | 127.39699 | 2749 ft | 270 kts | 349° |
| 2026-04-20 21:34 | 50.50036 | 127.40428 | 3801 ft | 198 kts | 42° |
| 2026-04-20 21:35 | 50.50688 | 127.41535 | 3734 ft | 226 kts | 51° |
| 2026-04-20 21:35 | 50.51534 | 127.43938 | 2967 ft | 260 kts | 70° |
| 2026-04-20 21:35 | 50.52095 | 127.47527 | 3002 ft | 245 kts | 76° |
| 2026-04-20 21:35 | 50.52461 | 127.50092 | 3011 ft | 235 kts | 76° |
| 2026-04-20 21:36 | 50.52813 | 127.52531 | 3005 ft | 226 kts | 76° |
| 2026-04-20 21:36 | 50.52928 | 127.54944 | 3088 ft | 215 kts | 92° |
| 2026-04-20 21:36 | 50.52802 | 127.57259 | 3082 ft | 208 kts | 94° |
| 2026-04-20 21:36 | 50.52718 | 127.58755 | 3030 ft | 218 kts | 94° |
| 2026-04-20 21:37 | 50.52568 | 127.61201 | 3888 ft | 222 kts | 97° |
| 2026-04-20 21:37 | 50.52141 | 127.63376 | 4774 ft | 202 kts | 115° |
| 2026-04-20 21:37 | 50.51362 | 127.65216 | 4587 ft | 206 kts | 127° |
| 2026-04-20 21:37 | 50.50425 | 127.66992 | 4262 ft | 215 kts | 128° |
| 2026-04-20 21:38 | 50.49384 | 127.68882 | 4345 ft | 246 kts | 130° |
| 2026-04-20 21:38 | 50.47821 | 127.71600 | 5400 ft | 257 kts | 131° |
| 2026-04-20 21:38 | 50.47024 | 127.72968 | 6070 ft | 257 kts | 131° |
| 2026-04-20 21:38 | 50.45836 | 127.75003 | 7037 ft | 257 kts | 131° |
| 2026-04-20 21:39 | 50.44622 | 127.77077 | 7933 ft | 260 kts | 131° |
| 2026-04-20 21:39 | 50.43396 | 127.79166 | 8813 ft | 263 kts | 131° |
| 2026-04-20 21:39 | 50.42158 | 127.81273 | 9681 ft | 266 kts | 132° |
| 2026-04-20 21:39 | 50.40478 | 127.84126 | 10824 ft | 271 kts | 132° |
| 2026-04-20 21:40 | 50.39644 | 127.85538 | 11396 ft | 273 kts | 132° |
| 2026-04-20 21:40 | 50.37934 | 127.88433 | 12584 ft | 275 kts | 132° |
| 2026-04-20 21:40 | 50.37065 | 127.89905 | 13162 ft | 276 kts | 131° |
| 2026-04-20 21:40 | 50.35326 | 127.92851 | 13652 ft | 284 kts | 131° |
| 2026-04-20 21:41 | 50.34011 | 127.95155 | 13589 ft | 285 kts | 129° |
| 2026-04-20 21:41 | 50.33145 | 127.96721 | 13563 ft | 285 kts | 130° |
| 2026-04-20 21:41 | 50.31366 | 127.99786 | 13574 ft | 286 kts | 131° |
| 2026-04-20 21:41 | 50.30007 | 128.02072 | 13593 ft | 286 kts | 132° |
| 2026-04-20 21:42 | 50.28654 | 128.04327 | 13590 ft | 285 kts | 132° |
| 2026-04-20 21:42 | 50.27737 | 128.05847 | 13588 ft | 285 kts | 132° |
| 2026-04-20 21:42 | 50.25938 | 128.08820 | 13589 ft | 285 kts | 132° |
| 2026-04-20 21:42 | 50.24573 | 128.11072 | 13589 ft | 285 kts | 132° |
| 2026-04-20 21:43 | 50.23208 | 128.13322 | 13587 ft | 285 kts | 133° |
| 2026-04-20 21:43 | 50.21822 | 128.15509 | 13583 ft | 285 kts | 138° |
| 2026-04-20 21:43 | 50.20178 | 128.17213 | 13583 ft | 286 kts | 153° |
| 2026-04-20 21:43 | 50.18290 | 128.18210 | 13594 ft | 287 kts | 168° |
| 2026-04-20 21:44 | 50.16347 | 128.18407 | 13651 ft | 276 kts | 183° |
| 2026-04-20 21:44 | 50.14516 | 128.17816 | 13702 ft | 264 kts | 199° |
| 2026-04-20 21:44 | 50.13415 | 128.17023 | 13609 ft | 261 kts | 210° |
| 2026-04-20 21:44 | 50.11588 | 128.14548 | 13261 ft | 261 kts | 232° |
| 2026-04-20 21:45 | 50.10695 | 128.12115 | 13010 ft | 260 kts | 249° |
| 2026-04-20 21:45 | 50.10278 | 128.09396 | 12747 ft | 259 kts | 266° |
| 2026-04-20 21:45 | 50.10286 | 128.07529 | 12593 ft | 258 kts | 277° |
| 2026-04-20 21:45 | 50.10980 | 128.04016 | 12305 ft | 254 kts | 299° |
| 2026-04-20 21:46 | 50.11999 | 128.01802 | 12074 ft | 252 kts | 311° |
| 2026-04-20 21:46 | 50.12759 | 128.00438 | 11921 ft | 251 kts | 314° |
| 2026-04-20 21:46 | 50.14632 | 127.98303 | 11600 ft | 249 kts | 336° |
| 2026-04-20 21:46 | 50.16284 | 127.97555 | 11373 ft | 248 kts | 353° |
| 2026-04-20 21:47 | 50.17994 | 127.97520 | 11157 ft | 247 kts | 3° |
| 2026-04-20 21:47 | 50.19134 | 127.97629 | 11016 ft | 246 kts | 4° |
| 2026-04-20 21:47 | 50.21411 | 127.97855 | 10722 ft | 245 kts | 4° |
| 2026-04-20 21:47 | 50.23113 | 127.98023 | 10510 ft | 244 kts | 4° |
| 2026-04-20 21:48 | 50.24234 | 127.98135 | 10377 ft | 243 kts | 4° |
| 2026-04-20 21:48 | 50.26492 | 127.98359 | 10098 ft | 242 kts | 4° |
| 2026-04-20 21:48 | 50.28154 | 127.98523 | 9890 ft | 241 kts | 4° |
| 2026-04-20 21:48 | 50.29285 | 127.98634 | 9743 ft | 241 kts | 4° |
| 2026-04-20 21:49 | 50.30951 | 127.98792 | 9532 ft | 240 kts | 4° |
| 2026-04-20 21:49 | 50.33174 | 127.98999 | 9265 ft | 239 kts | 3° |
| 2026-04-20 21:49 | 50.34267 | 127.99099 | 9142 ft | 238 kts | 3° |
| 2026-04-20 21:49 | 50.36470 | 127.99296 | 8867 ft | 237 kts | 3° |
| 2026-04-20 21:50 | 50.38115 | 127.99439 | 8648 ft | 237 kts | 3° |
| 2026-04-20 21:50 | 50.39768 | 127.99585 | 8482 ft | 241 kts | 3° |
| 2026-04-20 21:50 | 50.40908 | 127.99687 | 8379 ft | 241 kts | 3° |
| 2026-04-20 21:50 | 50.43145 | 127.99886 | 8177 ft | 238 kts | 3° |
| 2026-04-20 21:51 | 50.44797 | 128.00030 | 8025 ft | 238 kts | 3° |
| 2026-04-20 21:51 | 50.46447 | 128.00176 | 7876 ft | 237 kts | 3° |
| 2026-04-20 21:51 | 50.48099 | 128.00215 | 7714 ft | 236 kts | 350° |
| 2026-04-20 21:51 | 50.49678 | 127.99511 | 7577 ft | 235 kts | 343° |
| 2026-04-20 21:52 | 50.51228 | 127.98740 | 7428 ft | 234 kts | 343° |
| 2026-04-20 21:52 | 50.52795 | 127.97968 | 7280 ft | 234 kts | 343° |
| 2026-04-20 21:52 | 50.54341 | 127.97197 | 7133 ft | 233 kts | 343° |
| 2026-04-20 21:52 | 50.55383 | 127.96672 | 7034 ft | 233 kts | 343° |
| 2026-04-20 21:53 | 50.57415 | 127.95651 | 6778 ft | 229 kts | 343° |
| 2026-04-20 21:53 | 50.58931 | 127.94883 | 6338 ft | 227 kts | 343° |
| 2026-04-20 21:53 | 50.60408 | 127.94034 | 5843 ft | 227 kts | 328° |
| 2026-04-20 21:53 | 50.61335 | 127.92049 | 5260 ft | 233 kts | 282° |
| 2026-04-20 21:54 | 50.61439 | 127.89550 | 4828 ft | 230 kts | 273° |
| 2026-04-20 21:54 | 50.61480 | 127.87013 | 4407 ft | 230 kts | 273° |
| 2026-04-20 21:54 | 50.61506 | 127.85351 | 4291 ft | 229 kts | 273° |
| 2026-04-20 21:54 | 50.61545 | 127.82834 | 4138 ft | 227 kts | 273° |
| 2026-04-20 21:55 | 50.61596 | 127.79523 | 3927 ft | 226 kts | 273° |
| 2026-04-20 21:55 | 50.61425 | 127.77056 | 3715 ft | 228 kts | 254° |
| 2026-04-20 21:55 | 50.60929 | 127.74703 | 3548 ft | 228 kts | 253° |
| 2026-04-20 21:55 | 50.60428 | 127.72337 | 3332 ft | 223 kts | 253° |
| 2026-04-20 21:56 | 50.59936 | 127.70029 | 3010 ft | 226 kts | 253° |
| 2026-04-20 21:56 | 50.59438 | 127.67687 | 2998 ft | 225 kts | 253° |
| 2026-04-20 21:56 | 50.58949 | 127.65404 | 2990 ft | 213 kts | 253° |
| 2026-04-20 21:56 | 50.58471 | 127.63200 | 3008 ft | 211 kts | 253° |
| 2026-04-20 21:57 | 50.58156 | 127.61748 | 3016 ft | 210 kts | 253° |
| 2026-04-20 21:57 | 50.57523 | 127.58829 | 3021 ft | 211 kts | 253° |
| 2026-04-20 21:57 | 50.57042 | 127.56617 | 3023 ft | 210 kts | 253° |
| 2026-04-20 21:57 | 50.56568 | 127.54428 | 3018 ft | 211 kts | 253° |
| 2026-04-20 21:58 | 50.56103 | 127.52295 | 2928 ft | 203 kts | 253° |
| 2026-04-20 21:58 | 50.55643 | 127.50205 | 2633 ft | 205 kts | 253° |
| 2026-04-20 21:58 | 50.55329 | 127.48778 | 2453 ft | 204 kts | 253° |
| 2026-04-20 21:58 | 50.54714 | 127.45988 | 2156 ft | 199 kts | 253° |
| 2026-04-20 21:59 | 50.54283 | 127.44064 | 2285 ft | 168 kts | 253° |
| 2026-04-20 21:59 | 50.54026 | 127.42972 | 2216 ft | 153 kts | 252° |
| 2026-04-20 21:59 | 50.53517 | 127.40965 | 1926 ft | 144 kts | 248° |
| 2026-04-20 21:59 | 50.52703 | 127.40122 | 1953 ft | 147 kts | 184° |
| 2026-04-20 22:00 | 50.51641 | 127.40197 | 2064 ft | 158 kts | 169° |
| 2026-04-20 22:00 | 50.50944 | 127.40421 | 1990 ft | 156 kts | 166° |
| 2026-04-20 22:00 | 50.49519 | 127.40420 | 1923 ft | 151 kts | 184° |
| 2026-04-20 22:00 | 50.48475 | 127.40210 | 1707 ft | 150 kts | 189° |
| 2026-04-20 22:01 | 50.47438 | 127.40066 | 1443 ft | 147 kts | 181° |
| 2026-04-20 22:01 | 50.46429 | 127.40282 | 1253 ft | 148 kts | 165° |
| 2026-04-20 22:01 | 50.45431 | 127.40648 | 971 ft | 150 kts | 166° |
| 2026-04-20 22:01 | 50.44436 | 127.40986 | 686 ft | 145 kts | 168° |
| 2026-04-20 22:02 | 50.43483 | 127.41293 | 571 ft | 129 kts | 168° |
| 2026-04-20 22:02 | 50.42905 | 127.41483 | 593 ft | 36 kts | 170° |
| 2026-04-20 22:02 | 50.42643 | 127.41563 | 606 ft | 38 kts | 169° |
| 2026-04-20 22:02 | 50.42400 | 127.41640 | 614 ft | 31 kts | 169° |
| 2026-04-20 22:03 | 50.42310 | 127.41640 | 617 ft | 16 kts | 204° |
| 2026-04-20 22:03 | 50.42272 | 127.41544 | 617 ft | 10 kts | 256° |
| 2026-04-20 22:03 | 50.42256 | 127.41434 | 617 ft | 7 kts | 259° |
| 2026-04-20 22:03 | 50.42245 | 127.41351 | 616 ft | 10 kts | 259° |
| 2026-04-20 22:04 | 50.42237 | 127.41287 | 615 ft | 11 kts | 259° |
| 2026-04-20 22:04 | 50.42225 | 127.41200 | 616 ft | 12 kts | 259° |
| 2026-04-20 22:04 | 50.42237 | 127.41044 | 614 ft | 13 kts | 324° |
| 2026-04-20 22:05 | 50.42314 | 127.41013 | 613 ft | 1 kts | 341° |
| 2026-04-20 22:05 | 50.42365 | 127.40996 | 612 ft | 13 kts | 350° |
| 2026-04-20 22:05 | 50.42408 | 127.40884 | 608 ft | 1 kts | 261° |
| 2026-04-20 22:05 | 50.42405 | 127.40855 | 607 ft | 0 kts | 260° |